createdAt,value
2018-03-06T00:01:11.807Z,0.00
2018-03-06T00:02:11.736Z,0.00
2018-03-06T00:04:03.504Z,0.00
2018-03-06T00:05:03.396Z,0.00
2018-03-06T00:06:55.127Z,0.00
2018-03-06T00:07:55.056Z,0.00
2018-03-06T00:09:46.816Z,0.00
2018-03-06T00:10:46.729Z,0.00
2018-03-06T00:12:39.073Z,0.00
2018-03-06T00:13:38.915Z,0.00
2018-03-06T00:15:30.671Z,0.00
2018-03-06T00:16:30.584Z,0.00
2018-03-06T00:18:22.339Z,0.00
2018-03-06T00:19:22.268Z,0.00
2018-03-06T00:21:14.028Z,0.00
2018-03-06T00:22:13.949Z,0.00
2018-03-06T00:24:05.684Z,0.00
2018-03-06T00:25:05.634Z,0.00
2018-03-06T00:26:57.441Z,0.00
2018-03-06T00:27:57.281Z,0.00
2018-03-06T00:29:49.023Z,0.00
2018-03-06T00:30:48.952Z,0.00
2018-03-06T00:32:40.723Z,0.00
2018-03-06T00:33:40.637Z,0.00
2018-03-06T00:35:32.415Z,0.00
2018-03-06T00:36:32.305Z,0.00
2018-03-06T00:38:24.077Z,0.00
2018-03-06T00:39:23.978Z,0.00
2018-03-06T00:41:15.765Z,0.00
2018-03-06T00:42:15.667Z,0.00
2018-03-06T00:44:07.424Z,0.00
2018-03-06T00:45:07.361Z,0.00
2018-03-06T00:46:59.118Z,0.00
2018-03-06T00:47:59.014Z,0.00
2018-03-06T00:49:50.764Z,0.00
2018-03-06T00:50:50.689Z,0.00
2018-03-06T00:52:42.441Z,0.00
2018-03-06T00:53:42.361Z,0.00
2018-03-06T00:55:34.131Z,0.00
2018-03-06T00:56:34.054Z,0.00
2018-03-06T00:58:25.787Z,0.00
2018-03-06T00:59:25.713Z,0.00
2018-03-06T01:01:17.442Z,0.00
2018-03-06T01:02:17.373Z,0.00
2018-03-06T01:04:09.112Z,0.00
2018-03-06T01:05:09.025Z,0.00
2018-03-06T01:07:00.767Z,0.00
2018-03-06T01:08:00.696Z,0.00
2018-03-06T01:09:52.450Z,0.00
2018-03-06T01:10:52.371Z,0.00
2018-03-06T01:12:44.114Z,0.00
2018-03-06T01:13:44.040Z,0.00
2018-03-06T01:15:35.795Z,0.00
2018-03-06T01:16:35.715Z,0.00
2018-03-06T01:18:27.490Z,0.00
2018-03-06T01:19:27.409Z,0.00
2018-03-06T01:21:19.190Z,0.00
2018-03-06T01:22:19.089Z,0.00
2018-03-06T01:24:10.845Z,0.00
2018-03-06T01:25:10.754Z,0.00
2018-03-06T01:27:02.514Z,0.00
2018-03-06T01:28:02.441Z,0.00
2018-03-06T01:29:54.179Z,0.00
2018-03-06T01:30:54.147Z,0.00
2018-03-06T01:32:45.901Z,0.00
2018-03-06T01:33:45.828Z,0.00
2018-03-06T01:35:37.590Z,0.00
2018-03-06T01:36:37.519Z,0.00
2018-03-06T01:38:29.266Z,0.00
2018-03-06T01:39:29.187Z,0.00
2018-03-06T01:41:20.940Z,0.00
2018-03-06T01:42:20.849Z,0.00
2018-03-06T01:44:12.600Z,0.00
2018-03-06T01:45:12.530Z,0.00
2018-03-06T01:47:04.272Z,0.00
2018-03-06T01:48:04.220Z,0.00
2018-03-06T01:49:55.944Z,0.00
2018-03-06T01:50:55.876Z,0.00
2018-03-06T01:52:47.620Z,0.00
2018-03-06T01:53:47.538Z,0.00
2018-03-06T01:55:39.274Z,0.00
2018-03-06T01:56:39.212Z,0.00
2018-03-06T01:58:30.948Z,0.00
2018-03-06T01:59:30.866Z,0.00
2018-03-06T02:01:22.631Z,0.00
2018-03-06T02:02:22.534Z,0.00
2018-03-06T02:04:14.294Z,0.00
2018-03-06T02:05:14.215Z,0.00
2018-03-06T02:07:05.987Z,0.00
2018-03-06T02:08:05.884Z,0.00
2018-03-06T02:09:57.658Z,0.00
2018-03-06T02:10:57.606Z,0.00
2018-03-06T02:12:49.322Z,0.00
2018-03-06T02:13:49.235Z,0.00
2018-03-06T02:15:40.981Z,0.00
2018-03-06T02:16:40.901Z,0.00
2018-03-06T02:18:32.657Z,0.00
2018-03-06T02:19:32.579Z,0.00
2018-03-06T02:21:24.328Z,0.00
2018-03-06T02:22:24.256Z,0.00
2018-03-06T02:24:16.002Z,0.00
2018-03-06T02:25:15.916Z,0.00
2018-03-06T02:27:07.666Z,0.00
2018-03-06T02:28:07.602Z,0.00
2018-03-06T02:29:59.350Z,0.00
2018-03-06T02:30:59.269Z,0.00
2018-03-06T02:32:51.026Z,0.00
2018-03-06T02:33:50.950Z,0.00
2018-03-06T02:35:42.718Z,0.00
2018-03-06T02:36:42.616Z,0.00
2018-03-06T02:38:34.393Z,0.00
2018-03-06T02:39:34.290Z,0.00
2018-03-06T02:41:26.048Z,0.00
2018-03-06T02:42:25.978Z,0.00
2018-03-06T02:44:17.755Z,0.00
2018-03-06T02:45:17.642Z,0.00
2018-03-06T02:47:09.424Z,0.00
2018-03-06T02:48:09.303Z,0.00
2018-03-06T02:50:01.071Z,0.00
2018-03-06T02:51:00.976Z,0.00
2018-03-06T02:52:52.737Z,0.00
2018-03-06T02:53:52.661Z,0.00
2018-03-06T02:55:44.428Z,0.00
2018-03-06T02:56:44.343Z,0.00
2018-03-06T02:58:36.082Z,0.00
2018-03-06T02:59:36.020Z,0.00
2018-03-06T03:01:27.775Z,0.00
2018-03-06T03:02:27.691Z,0.00
2018-03-06T03:04:19.438Z,0.00
2018-03-06T03:05:19.363Z,0.00
2018-03-06T03:07:11.132Z,0.00
2018-03-06T03:08:11.049Z,0.00
2018-03-06T03:10:02.786Z,0.00
2018-03-06T03:11:02.717Z,0.00
2018-03-06T03:12:54.468Z,0.00
2018-03-06T03:13:54.389Z,0.00
2018-03-06T03:15:46.138Z,0.00
2018-03-06T03:16:46.054Z,0.00
2018-03-06T03:18:37.819Z,0.00
2018-03-06T03:19:37.715Z,0.00
2018-03-06T03:21:29.463Z,0.00
2018-03-06T03:22:29.387Z,0.00
2018-03-06T03:24:21.124Z,0.00
2018-03-06T03:25:21.046Z,0.00
2018-03-06T03:27:12.832Z,0.00
2018-03-06T03:28:12.730Z,0.00
2018-03-06T03:30:04.569Z,0.00
2018-03-06T03:31:04.501Z,0.00
2018-03-06T03:32:56.272Z,0.00
2018-03-06T03:33:56.182Z,0.00
2018-03-06T03:35:48.010Z,0.00
2018-03-06T03:36:47.866Z,0.00
2018-03-06T03:38:39.634Z,0.00
2018-03-06T03:39:39.549Z,0.00
2018-03-06T03:41:31.303Z,0.00
2018-03-06T03:42:31.218Z,0.00
2018-03-06T03:44:22.957Z,0.00
2018-03-06T03:45:22.886Z,0.00
2018-03-06T03:47:14.636Z,0.00
2018-03-06T03:48:14.555Z,0.00
2018-03-06T03:50:06.326Z,0.00
2018-03-06T03:51:06.252Z,0.00
2018-03-06T03:52:57.990Z,0.00
2018-03-06T03:53:57.910Z,0.00
2018-03-06T03:55:49.680Z,0.00
2018-03-06T03:56:49.582Z,0.00
2018-03-06T03:58:41.309Z,0.00
2018-03-06T03:59:41.242Z,0.00
2018-03-06T04:01:32.993Z,0.00
2018-03-06T04:02:32.908Z,0.00
2018-03-06T04:04:24.654Z,0.00
2018-03-06T04:05:24.572Z,0.00
2018-03-06T04:07:16.317Z,0.00
2018-03-06T04:08:16.232Z,0.00
2018-03-06T04:10:07.980Z,0.00
2018-03-06T04:11:07.910Z,0.00
2018-03-06T04:12:59.680Z,0.00
2018-03-06T04:13:59.593Z,0.00
2018-03-06T04:15:51.343Z,0.00
2018-03-06T04:16:51.269Z,0.00
2018-03-06T04:18:43.031Z,0.00
2018-03-06T04:19:42.945Z,0.00
2018-03-06T04:21:34.680Z,0.00
2018-03-06T04:22:34.605Z,0.00
2018-03-06T04:24:26.375Z,0.00
2018-03-06T04:25:26.297Z,0.00
2018-03-06T04:27:18.026Z,0.00
2018-03-06T04:28:17.953Z,0.00
2018-03-06T04:30:09.692Z,0.00
2018-03-06T04:31:09.619Z,0.00
2018-03-06T04:33:01.359Z,0.00
2018-03-06T04:34:01.290Z,0.00
2018-03-06T04:35:53.034Z,0.00
2018-03-06T04:36:52.951Z,0.00
2018-03-06T04:38:44.699Z,0.00
2018-03-06T04:39:44.619Z,0.00
2018-03-06T04:41:36.349Z,0.00
2018-03-06T04:42:36.275Z,0.00
2018-03-06T04:44:28.037Z,0.00
2018-03-06T04:45:27.956Z,0.00
2018-03-06T04:47:19.697Z,0.00
2018-03-06T04:48:19.648Z,0.00
2018-03-06T04:50:11.384Z,0.00
2018-03-06T04:51:11.303Z,0.00
2018-03-06T04:53:03.043Z,0.00
2018-03-06T04:54:02.967Z,0.00
2018-03-06T04:55:54.744Z,0.00
2018-03-06T04:56:54.712Z,0.00
2018-03-06T04:58:46.458Z,0.00
2018-03-06T04:59:46.385Z,0.00
2018-03-06T05:01:38.131Z,0.00
2018-03-06T05:02:38.046Z,0.00
2018-03-06T05:04:29.786Z,0.00
2018-03-06T05:05:29.706Z,0.00
2018-03-06T05:07:21.468Z,0.00
2018-03-06T05:08:21.385Z,4.00
2018-03-06T05:10:13.122Z,4.00
2018-03-06T05:11:13.049Z,4.00
2018-03-06T05:13:04.807Z,8.00
2018-03-06T05:14:04.747Z,4.00
2018-03-06T05:15:56.520Z,8.00
2018-03-06T05:16:56.412Z,12.00
2018-03-06T05:18:48.181Z,16.00
2018-03-06T05:19:48.076Z,16.00
2018-03-06T05:21:39.822Z,20.00
2018-03-06T05:22:39.740Z,24.00
2018-03-06T05:24:31.485Z,32.00
2018-03-06T05:25:31.414Z,40.00
2018-03-06T05:27:23.189Z,56.00
2018-03-06T05:28:23.097Z,60.00
2018-03-06T05:30:14.833Z,76.00
2018-03-06T05:31:14.765Z,88.00
2018-03-06T05:33:06.541Z,108.00
2018-03-06T05:34:06.452Z,124.00
2018-03-06T05:35:58.199Z,148.00
2018-03-06T05:36:58.154Z,164.00
2018-03-06T05:38:49.899Z,196.00
2018-03-06T05:39:49.818Z,216.00
2018-03-06T05:41:41.567Z,252.00
2018-03-06T05:42:41.773Z,272.00
2018-03-06T05:44:33.288Z,320.00
2018-03-06T05:45:33.198Z,344.00
2018-03-06T05:47:24.932Z,400.00
2018-03-06T05:48:24.866Z,436.00
2018-03-06T05:50:16.673Z,508.00
2018-03-06T05:51:16.588Z,552.00
2018-03-06T05:53:08.339Z,644.00
2018-03-06T05:54:08.264Z,700.00
2018-03-06T05:56:00.013Z,804.00
2018-03-06T05:56:59.934Z,872.00
2018-03-06T05:58:51.664Z,996.00
2018-03-06T05:59:51.601Z,1068.00
2018-03-06T06:01:43.335Z,1208.00
2018-03-06T06:02:43.272Z,1288.00
2018-03-06T06:04:35.199Z,1448.00
2018-03-06T06:05:34.976Z,1536.00
2018-03-06T06:07:26.743Z,1712.00
2018-03-06T06:08:26.640Z,1808.00
2018-03-06T06:10:18.404Z,2004.00
2018-03-06T06:11:18.319Z,2112.00
2018-03-06T06:13:10.054Z,2308.00
2018-03-06T06:14:09.984Z,2412.00
2018-03-06T06:16:01.730Z,2600.00
2018-03-06T06:17:01.642Z,2700.00
2018-03-06T06:18:53.383Z,2896.00
2018-03-06T06:19:53.324Z,3008.00
2018-03-06T06:21:45.069Z,3212.00
2018-03-06T06:22:44.982Z,3324.00
2018-03-06T06:24:36.742Z,3588.00
2018-03-06T06:25:36.653Z,3732.00
2018-03-06T06:27:28.427Z,4000.00
2018-03-06T06:28:28.344Z,4156.00
2018-03-06T06:30:20.086Z,4428.00
2018-03-06T06:31:20.020Z,4580.00
2018-03-06T06:33:11.797Z,4840.00
2018-03-06T06:34:11.703Z,4980.00
2018-03-06T06:36:03.461Z,5200.00
2018-03-06T06:37:03.381Z,5324.00
2018-03-06T06:38:55.150Z,5548.00
2018-03-06T06:39:55.049Z,5652.00
2018-03-06T06:41:46.822Z,5956.00
2018-03-06T06:42:46.758Z,6100.00
2018-03-06T06:44:38.465Z,6316.00
2018-03-06T06:45:38.387Z,6444.00
2018-03-06T06:47:30.253Z,6608.00
2018-03-06T06:48:30.141Z,6728.00
2018-03-06T06:50:21.875Z,7052.00
2018-03-06T06:51:21.804Z,7188.00
2018-03-06T06:53:13.566Z,7452.00
2018-03-06T06:54:13.499Z,7580.00
2018-03-06T06:56:05.230Z,7816.00
2018-03-06T06:57:05.155Z,7972.00
2018-03-06T06:58:56.935Z,8356.00
2018-03-06T06:59:56.848Z,8548.00
2018-03-06T07:01:48.591Z,9028.00
2018-03-06T07:02:48.523Z,9552.00
2018-03-06T07:04:40.266Z,11040.00
2018-03-06T07:05:40.191Z,11700.00
2018-03-06T07:07:31.925Z,11916.00
2018-03-06T07:08:31.856Z,12484.00
2018-03-06T07:10:23.645Z,13216.00
2018-03-06T07:11:23.544Z,13956.00
2018-03-06T07:13:15.338Z,14976.00
2018-03-06T07:14:15.225Z,15424.00
2018-03-06T07:16:06.971Z,15040.00
2018-03-06T07:17:06.898Z,15136.00
2018-03-06T07:18:58.670Z,14140.00
2018-03-06T07:19:58.569Z,14280.00
2018-03-06T07:21:50.308Z,16960.00
2018-03-06T07:22:50.247Z,16896.00
2018-03-06T07:24:42.004Z,17216.00
2018-03-06T07:25:41.922Z,17408.00
2018-03-06T07:27:33.696Z,17152.00
2018-03-06T07:28:33.622Z,15520.00
2018-03-06T07:30:25.379Z,14948.00
2018-03-06T07:31:25.334Z,16064.00
2018-03-06T07:33:17.085Z,17184.00
2018-03-06T07:34:17.013Z,17984.00
2018-03-06T07:36:08.796Z,18944.00
2018-03-06T07:37:08.724Z,18848.00
2018-03-06T07:39:00.471Z,17440.00
2018-03-06T07:40:00.394Z,17504.00
2018-03-06T07:41:52.163Z,17728.00
2018-03-06T07:42:52.083Z,18784.00
2018-03-06T07:44:43.840Z,19392.00
2018-03-06T07:45:43.782Z,19840.00
2018-03-06T07:47:35.531Z,18400.00
2018-03-06T07:48:35.458Z,19840.00
2018-03-06T07:50:27.209Z,20320.00
2018-03-06T07:51:27.158Z,20096.00
2018-03-06T07:53:18.911Z,22048.00
2018-03-06T07:54:18.829Z,21888.00
2018-03-06T07:56:10.618Z,22112.00
2018-03-06T07:57:10.579Z,20768.00
2018-03-06T07:59:02.272Z,19424.00
2018-03-06T08:00:02.202Z,20032.00
2018-03-06T08:01:54.016Z,20640.00
2018-03-06T08:02:53.964Z,20672.00
2018-03-06T08:04:45.694Z,21600.00
2018-03-06T08:05:45.622Z,21184.00
2018-03-06T08:07:37.387Z,19296.00
2018-03-06T08:08:37.304Z,22432.00
2018-03-06T08:10:29.101Z,21856.00
2018-03-06T08:11:29.031Z,22656.00
2018-03-06T08:13:20.818Z,21888.00
2018-03-06T08:14:20.735Z,21184.00
2018-03-06T08:16:12.500Z,23072.00
2018-03-06T08:17:12.434Z,22784.00
2018-03-06T08:19:04.231Z,23712.00
2018-03-06T08:20:04.117Z,23456.00
2018-03-06T08:21:55.911Z,24160.00
2018-03-06T08:22:55.821Z,25376.00
2018-03-06T08:24:47.593Z,27008.00
2018-03-06T08:25:47.507Z,26368.00
2018-03-06T08:27:39.278Z,27584.00
2018-03-06T08:28:39.212Z,27808.00
2018-03-06T08:30:30.949Z,28128.00
2018-03-06T08:31:30.883Z,28320.00
2018-03-06T08:33:22.661Z,27776.00
2018-03-06T08:34:22.582Z,27296.00
2018-03-06T08:36:14.320Z,27328.00
2018-03-06T08:37:14.253Z,28800.00
2018-03-06T08:39:06.014Z,31680.00
2018-03-06T08:40:05.943Z,31168.00
2018-03-06T08:41:57.709Z,31808.00
2018-03-06T08:42:57.639Z,29632.00
2018-03-06T08:44:49.438Z,31904.00
2018-03-06T08:45:49.347Z,33600.00
2018-03-06T08:47:41.135Z,34720.00
2018-03-06T08:48:41.073Z,34688.00
2018-03-06T08:50:32.870Z,35808.00
2018-03-06T08:51:32.799Z,35776.00
2018-03-06T08:53:24.630Z,36096.00
2018-03-06T08:54:24.520Z,36352.00
2018-03-06T08:56:16.350Z,36128.00
2018-03-06T08:57:16.281Z,38464.00
2018-03-06T08:59:08.037Z,39232.00
2018-03-06T09:00:07.976Z,36896.00
2018-03-06T09:01:59.754Z,34720.00
2018-03-06T09:02:59.682Z,34528.00
2018-03-06T09:04:51.486Z,33248.00
2018-03-06T09:05:51.382Z,34304.00
2018-03-06T09:07:43.144Z,35296.00
2018-03-06T09:08:43.087Z,34880.00
2018-03-06T09:10:34.877Z,32096.00
2018-03-06T09:11:34.786Z,34080.00
2018-03-06T09:13:26.609Z,34080.00
2018-03-06T09:14:26.486Z,34016.00
2018-03-06T09:16:18.258Z,35200.00
2018-03-06T09:17:18.192Z,34848.00
2018-03-06T09:19:09.933Z,33184.00
2018-03-06T09:20:09.877Z,30816.00
2018-03-06T09:22:01.644Z,29472.00
2018-03-06T09:23:01.578Z,29280.00
2018-03-06T09:24:53.349Z,27648.00
2018-03-06T09:25:53.285Z,26720.00
2018-03-06T09:27:45.096Z,25760.00
2018-03-06T09:28:45.028Z,24448.00
2018-03-06T09:30:36.794Z,23808.00
2018-03-06T09:31:36.734Z,21152.00
2018-03-06T09:33:28.504Z,22368.00
2018-03-06T09:34:28.433Z,24544.00
2018-03-06T09:36:20.192Z,26112.00
2018-03-06T09:37:20.121Z,27648.00
2018-03-06T09:39:11.995Z,28352.00
2018-03-06T09:40:11.923Z,27520.00
2018-03-06T09:42:03.631Z,27936.00
2018-03-06T09:43:03.528Z,28672.00
2018-03-06T09:44:55.299Z,28864.00
2018-03-06T09:45:55.246Z,28128.00
2018-03-06T09:47:47.024Z,27584.00
2018-03-06T09:48:46.975Z,27552.00
2018-03-06T09:50:38.699Z,26976.00
2018-03-06T09:51:38.646Z,26880.00
2018-03-06T09:53:30.421Z,24736.00
2018-03-06T09:54:30.351Z,25088.00
2018-03-06T09:56:22.111Z,19936.00
2018-03-06T09:57:22.073Z,19872.00
2018-03-06T09:59:13.816Z,20160.00
2018-03-06T10:00:13.772Z,20480.00
2018-03-06T10:02:05.551Z,19520.00
2018-03-06T10:03:05.512Z,20000.00
2018-03-06T10:04:57.269Z,19936.00
2018-03-06T10:05:57.189Z,19840.00
2018-03-06T10:07:48.940Z,19424.00
2018-03-06T10:08:48.877Z,18944.00
2018-03-06T10:10:40.650Z,19808.00
2018-03-06T10:11:40.587Z,18912.00
2018-03-06T10:13:32.354Z,20448.00
2018-03-06T10:14:32.276Z,20928.00
2018-03-06T10:16:24.066Z,19488.00
2018-03-06T10:17:24.001Z,20608.00
2018-03-06T10:19:15.928Z,20864.00
2018-03-06T10:20:15.743Z,21696.00
2018-03-06T10:22:07.457Z,21472.00
2018-03-06T10:23:07.391Z,22336.00
2018-03-06T10:24:59.199Z,21888.00
2018-03-06T10:25:59.111Z,21696.00
2018-03-06T10:27:50.894Z,22240.00
2018-03-06T10:28:50.805Z,23040.00
2018-03-06T10:30:42.573Z,22720.00
2018-03-06T10:31:42.524Z,22496.00
2018-03-06T10:33:34.323Z,21568.00
2018-03-06T10:34:34.254Z,20512.00
2018-03-06T10:36:26.075Z,19040.00
2018-03-06T10:37:25.968Z,18720.00
2018-03-06T10:39:17.739Z,18592.00
2018-03-06T10:40:17.648Z,18432.00
2018-03-06T10:42:09.408Z,17952.00
2018-03-06T10:43:09.349Z,17984.00
2018-03-06T10:45:01.175Z,18176.00
2018-03-06T10:46:01.105Z,17952.00
2018-03-06T10:47:52.861Z,17824.00
2018-03-06T10:48:52.798Z,17472.00
2018-03-06T10:50:44.571Z,17472.00
2018-03-06T10:51:44.497Z,17408.00
2018-03-06T10:53:36.285Z,17152.00
2018-03-06T10:54:36.192Z,17024.00
2018-03-06T10:56:27.990Z,16960.00
2018-03-06T10:57:27.886Z,16576.00
2018-03-06T10:59:19.640Z,16288.00
2018-03-06T11:00:19.574Z,15872.00
2018-03-06T11:02:11.350Z,15500.00
2018-03-06T11:03:11.268Z,15572.00
2018-03-06T11:05:03.040Z,15388.00
2018-03-06T11:06:02.952Z,15340.00
2018-03-06T11:07:54.714Z,14996.00
2018-03-06T11:08:54.647Z,15212.00
2018-03-06T11:10:46.420Z,15316.00
2018-03-06T11:11:46.346Z,15580.00
2018-03-06T11:13:38.105Z,16832.00
2018-03-06T11:14:38.047Z,17024.00
2018-03-06T11:16:29.816Z,16928.00
2018-03-06T11:17:29.736Z,16992.00
2018-03-06T11:19:21.565Z,16864.00
2018-03-06T11:20:21.436Z,16864.00
2018-03-06T11:22:13.248Z,16928.00
2018-03-06T11:23:13.198Z,16896.00
2018-03-06T11:25:04.906Z,16864.00
2018-03-06T11:26:04.843Z,16544.00
2018-03-06T11:27:56.611Z,16480.00
2018-03-06T11:28:56.543Z,16608.00
2018-03-06T11:30:48.316Z,17152.00
2018-03-06T11:31:48.243Z,17344.00
2018-03-06T11:33:39.998Z,17248.00
2018-03-06T11:34:39.924Z,17024.00
2018-03-06T11:36:31.687Z,16576.00
2018-03-06T11:37:31.614Z,16704.00
2018-03-06T11:39:23.379Z,16736.00
2018-03-06T11:40:23.308Z,16800.00
2018-03-06T11:42:15.087Z,16704.00
2018-03-06T11:43:15.011Z,16096.00
2018-03-06T11:45:06.776Z,15872.00
2018-03-06T11:46:06.709Z,15516.00
2018-03-06T11:47:58.486Z,15164.00
2018-03-06T11:48:58.420Z,14988.00
2018-03-06T11:50:50.180Z,14692.00
2018-03-06T11:51:50.116Z,14540.00
2018-03-06T11:53:41.875Z,14212.00
2018-03-06T11:54:41.816Z,14120.00
2018-03-06T11:56:33.606Z,13936.00
2018-03-06T11:57:33.495Z,13828.00
2018-03-06T11:59:25.275Z,13708.00
2018-03-06T12:00:25.195Z,13680.00
2018-03-06T12:02:16.997Z,13540.00
2018-03-06T12:03:16.971Z,13532.00
2018-03-06T12:05:08.653Z,13440.00
2018-03-06T12:06:08.587Z,13368.00
2018-03-06T12:08:00.349Z,13268.00
2018-03-06T12:09:00.278Z,13168.00
2018-03-06T12:10:52.032Z,13060.00
2018-03-06T12:11:51.974Z,13004.00
2018-03-06T12:13:43.751Z,12880.00
2018-03-06T12:14:43.662Z,12820.00
2018-03-06T12:16:35.410Z,12684.00
2018-03-06T12:17:35.345Z,12608.00
2018-03-06T12:19:27.142Z,12480.00
2018-03-06T12:20:27.049Z,12408.00
2018-03-06T12:22:18.803Z,12292.00
2018-03-06T12:23:18.738Z,12256.00
2018-03-06T12:25:10.504Z,12164.00
2018-03-06T12:26:10.427Z,12020.00
2018-03-06T12:28:02.214Z,11836.00
2018-03-06T12:29:02.136Z,11716.00
2018-03-06T12:30:53.910Z,11592.00
2018-03-06T12:31:53.853Z,11436.00
2018-03-06T12:33:45.626Z,11172.00
2018-03-06T12:34:45.560Z,11024.00
2018-03-06T12:36:37.301Z,10724.00
2018-03-06T12:37:37.238Z,10552.00
2018-03-06T12:39:29.000Z,10308.00
2018-03-06T12:40:28.931Z,10208.00
2018-03-06T12:42:20.686Z,10108.00
2018-03-06T12:43:20.617Z,10076.00
2018-03-06T12:45:12.378Z,10024.00
2018-03-06T12:46:12.307Z,9996.00
2018-03-06T12:48:04.057Z,9972.00
2018-03-06T12:49:04.005Z,9956.00
2018-03-06T12:50:55.754Z,9948.00
2018-03-06T12:51:55.671Z,9932.00
2018-03-06T12:53:47.421Z,9876.00
2018-03-06T12:54:47.395Z,9836.00
2018-03-06T12:56:39.128Z,9772.00
2018-03-06T12:57:39.057Z,9756.00
2018-03-06T12:59:30.806Z,9752.00
2018-03-06T13:00:30.745Z,9780.00
2018-03-06T13:02:22.511Z,9872.00
2018-03-06T13:03:22.445Z,9916.00
2018-03-06T13:05:14.187Z,9972.00
2018-03-06T13:06:14.140Z,10008.00
2018-03-06T13:08:05.902Z,10088.00
2018-03-06T13:09:05.814Z,10136.00
2018-03-06T13:10:57.604Z,10224.00
2018-03-06T13:11:57.535Z,10256.00
2018-03-06T13:13:49.266Z,10316.00
2018-03-06T13:14:49.192Z,10328.00
2018-03-06T13:16:40.976Z,10404.00
2018-03-06T13:17:40.883Z,10400.00
2018-03-06T13:19:32.640Z,10356.00
2018-03-06T13:20:32.581Z,10344.00
2018-03-06T13:22:24.346Z,10244.00
2018-03-06T13:23:24.307Z,10216.00
2018-03-06T13:25:16.044Z,10044.00
2018-03-06T13:26:15.976Z,9912.00
2018-03-06T13:28:07.737Z,9732.00
2018-03-06T13:29:07.668Z,9632.00
2018-03-06T13:30:59.457Z,9448.00
2018-03-06T13:31:59.383Z,9368.00
2018-03-06T13:33:51.151Z,9236.00
2018-03-06T13:34:51.083Z,9168.00
2018-03-06T13:36:42.847Z,9032.00
2018-03-06T13:37:42.768Z,8956.00
2018-03-06T13:39:34.556Z,8812.00
2018-03-06T13:40:34.463Z,8728.00
2018-03-06T13:42:26.263Z,8588.00
2018-03-06T13:43:26.186Z,8508.00
2018-03-06T13:45:17.959Z,8356.00
2018-03-06T13:46:17.902Z,8244.00
2018-03-06T13:48:09.775Z,8036.00
2018-03-06T13:49:09.580Z,7936.00
2018-03-06T13:51:01.337Z,7768.00
2018-03-06T13:52:01.275Z,7700.00
2018-03-06T13:53:53.106Z,7664.00
2018-03-06T13:54:53.019Z,7676.00
2018-03-06T13:56:44.756Z,7632.00
2018-03-06T13:57:44.749Z,7656.00
2018-03-06T13:59:36.447Z,7612.00
2018-03-06T14:00:36.374Z,7464.00
2018-03-06T14:02:28.144Z,7312.00
2018-03-06T14:03:28.089Z,7172.00
2018-03-06T14:05:19.846Z,6912.00
2018-03-06T14:06:19.765Z,6792.00
2018-03-06T14:08:11.520Z,6572.00
2018-03-06T14:09:11.447Z,6456.00
2018-03-06T14:11:03.224Z,6264.00
2018-03-06T14:12:03.138Z,6176.00
2018-03-06T14:13:54.911Z,6056.00
2018-03-06T14:14:54.844Z,6016.00
2018-03-06T14:16:46.576Z,5972.00
2018-03-06T14:17:46.508Z,5940.00
2018-03-06T14:19:38.320Z,5896.00
2018-03-06T14:20:38.242Z,5860.00
2018-03-06T14:22:29.968Z,5808.00
2018-03-06T14:23:29.903Z,5776.00
2018-03-06T14:25:21.711Z,5704.00
2018-03-06T14:26:21.586Z,5660.00
2018-03-06T14:28:13.361Z,5532.00
2018-03-06T14:29:13.292Z,5456.00
2018-03-06T14:31:05.054Z,5280.00
2018-03-06T14:32:04.975Z,5176.00
2018-03-06T14:33:56.722Z,5060.00
2018-03-06T14:34:56.660Z,5012.00
2018-03-06T14:36:48.475Z,4932.00
2018-03-06T14:37:48.389Z,4888.00
2018-03-06T14:39:40.181Z,4796.00
2018-03-06T14:40:40.108Z,4752.00
2018-03-06T14:42:31.859Z,4664.00
2018-03-06T14:43:31.772Z,4592.00
2018-03-06T14:45:23.530Z,4464.00
2018-03-06T14:46:23.458Z,4392.00
2018-03-06T14:48:15.211Z,4264.00
2018-03-06T14:49:15.135Z,4184.00
2018-03-06T14:51:06.948Z,4072.00
2018-03-06T14:52:06.826Z,4020.00
2018-03-06T14:53:58.593Z,3908.00
2018-03-06T14:54:58.509Z,3848.00
2018-03-06T14:56:50.270Z,3740.00
2018-03-06T14:57:50.184Z,3680.00
2018-03-06T14:59:41.956Z,3588.00
2018-03-06T15:00:41.871Z,3552.00
2018-03-06T15:02:33.626Z,3488.00
2018-03-06T15:03:33.552Z,3452.00
2018-03-06T15:05:25.308Z,3392.00
2018-03-06T15:06:25.310Z,3352.00
2018-03-06T15:08:16.979Z,3264.00
2018-03-06T15:09:16.926Z,3224.00
2018-03-06T15:11:08.673Z,3112.00
2018-03-06T15:12:08.607Z,3060.00
2018-03-06T15:14:00.364Z,2968.00
2018-03-06T15:15:00.269Z,2916.00
2018-03-06T15:16:52.021Z,2808.00
2018-03-06T15:17:51.941Z,2740.00
2018-03-06T15:19:43.723Z,2604.00
2018-03-06T15:20:43.619Z,2532.00
2018-03-06T15:22:35.380Z,2396.00
2018-03-06T15:23:35.316Z,2328.00
2018-03-06T15:25:27.079Z,2196.00
2018-03-06T15:26:26.997Z,2144.00
2018-03-06T15:28:18.742Z,2056.00
2018-03-06T15:29:18.664Z,2012.00
2018-03-06T15:31:10.506Z,1900.00
2018-03-06T15:32:10.348Z,1836.00
2018-03-06T15:34:02.102Z,1736.00
2018-03-06T15:35:02.032Z,1696.00
2018-03-06T15:36:53.825Z,1644.00
2018-03-06T15:37:53.713Z,1632.00
2018-03-06T15:39:45.465Z,1616.00
2018-03-06T15:40:45.400Z,1604.00
2018-03-06T15:42:37.178Z,1560.00
2018-03-06T15:43:37.110Z,1536.00
2018-03-06T15:45:28.882Z,1480.00
2018-03-06T15:46:28.797Z,1444.00
2018-03-06T15:48:20.618Z,1376.00
2018-03-06T15:49:20.493Z,1340.00
2018-03-06T15:51:12.262Z,1264.00
2018-03-06T15:52:12.180Z,1220.00
2018-03-06T15:54:03.924Z,1144.00
2018-03-06T15:55:03.863Z,1072.00
2018-03-06T15:56:55.620Z,1004.00
2018-03-06T15:57:55.539Z,956.00
2018-03-06T15:59:47.294Z,912.00
2018-03-06T16:00:47.224Z,892.00
2018-03-06T16:02:38.994Z,872.00
2018-03-06T16:03:38.902Z,828.00
2018-03-06T16:05:30.683Z,788.00
2018-03-06T16:06:30.619Z,764.00
2018-03-06T16:08:22.369Z,720.00
2018-03-06T16:09:22.288Z,696.00
2018-03-06T16:11:14.040Z,644.00
2018-03-06T16:12:13.966Z,612.00
2018-03-06T16:14:05.720Z,544.00
2018-03-06T16:15:05.645Z,512.00
2018-03-06T16:16:57.405Z,460.00
2018-03-06T16:17:57.336Z,436.00
2018-03-06T16:19:49.155Z,404.00
2018-03-06T16:20:49.035Z,388.00
2018-03-06T16:22:40.808Z,356.00
2018-03-06T16:23:40.776Z,340.00
2018-03-06T16:25:32.486Z,296.00
2018-03-06T16:26:32.401Z,272.00
2018-03-06T16:28:24.207Z,236.00
2018-03-06T16:29:24.124Z,220.00
2018-03-06T16:31:15.875Z,200.00
2018-03-06T16:32:15.807Z,192.00
2018-03-06T16:34:07.581Z,168.00
2018-03-06T16:35:07.506Z,160.00
2018-03-06T16:36:59.276Z,144.00
2018-03-06T16:37:59.213Z,136.00
2018-03-06T16:39:50.965Z,124.00
2018-03-06T16:40:50.891Z,112.00
2018-03-06T16:42:42.641Z,100.00
2018-03-06T16:43:42.568Z,88.00
2018-03-06T16:45:34.404Z,72.00
2018-03-06T16:46:34.247Z,64.00
2018-03-06T16:48:26.016Z,56.00
2018-03-06T16:49:25.973Z,52.00
2018-03-06T16:51:17.729Z,48.00
2018-03-06T16:52:17.625Z,44.00
2018-03-06T16:54:09.389Z,32.00
2018-03-06T16:55:09.329Z,32.00
2018-03-06T16:57:01.062Z,20.00
2018-03-06T16:58:00.984Z,20.00
2018-03-06T16:59:52.736Z,12.00
2018-03-06T17:00:52.657Z,12.00
2018-03-06T17:02:44.406Z,12.00
2018-03-06T17:03:44.341Z,8.00
2018-03-06T17:05:36.113Z,8.00
2018-03-06T17:06:36.032Z,8.00
2018-03-06T17:08:27.764Z,4.00
2018-03-06T17:09:27.692Z,4.00
2018-03-06T17:11:19.442Z,4.00
2018-03-06T17:12:19.361Z,0.00
2018-03-06T17:14:11.110Z,4.00
2018-03-06T17:15:11.043Z,4.00
2018-03-06T17:17:02.804Z,0.00
2018-03-06T17:18:02.721Z,0.00
2018-03-06T17:19:54.525Z,0.00
2018-03-06T17:20:54.459Z,0.00
2018-03-06T17:22:46.352Z,0.00
2018-03-06T17:23:46.302Z,0.00
2018-03-06T17:25:38.019Z,0.00
2018-03-06T17:26:37.945Z,0.00
2018-03-06T17:28:29.729Z,0.00
2018-03-06T17:29:29.651Z,0.00
2018-03-06T17:31:21.443Z,0.00
2018-03-06T17:32:21.372Z,0.00
2018-03-06T17:34:13.110Z,0.00
2018-03-06T17:35:13.032Z,0.00
2018-03-06T17:37:04.821Z,0.00
2018-03-06T17:38:04.742Z,0.00
2018-03-06T17:39:56.501Z,0.00
2018-03-06T17:40:56.460Z,0.00
2018-03-06T17:42:48.274Z,0.00
2018-03-06T17:43:48.213Z,0.00
2018-03-06T17:45:39.947Z,0.00